| time (UTC) | temp F | wind direction | speed MPH | gust MPH | rain 1hr in | rain 24hr in | rain mn in | humidity % | barometer mb |
| 20260502151623 | 51 | 63 | 3.0 | 9.0 | 0.00 | 0.00 | 0.00 | 39 | 1021.1 |
| 20260502150611 | 50 | 22 | 3.0 | 12.0 | 0.00 | 0.00 | 0.00 | 40 | 1021.1 |
| 20260502130619 | 42 | 5 | 4.0 | 9.0 | 0.00 | 0.00 | 0.00 | 49 | 1020.6 |
| 20260502123616 | 42 | 355 | 3.0 | 11.0 | 0.00 | 0.00 | 0.00 | 49 | 1020.6 |
| 20260502122628 | 43 | 61 | 3.0 | 10.0 | 0.00 | 0.00 | 0.00 | 48 | 1020.6 |
| 20260502121616 | 43 | 32 | 3.0 | 15.0 | 0.00 | 0.00 | 0.00 | 47 | 1020.6 |
| 20260502120630 | 44 | 96 | 4.0 | 13.0 | 0.00 | 0.00 | 0.00 | 47 | 1020.6 |
| 20260502115628 | 44 | 11 | 3.0 | 10.0 | 0.00 | 0.00 | 0.00 | 47 | 1020.6 |
| 20260502114622 | 43 | 44 | 2.0 | 10.0 | 0.00 | 0.00 | 0.00 | 49 | 1020.6 |
| 20260502113648 | 43 | 13 | 3.0 | 9.0 | 0.00 | 0.00 | 0.00 | 49 | 1020.6 |
| 20260502112616 | 44 | 42 | 3.0 | 9.0 | 0.00 | 0.00 | 0.00 | 48 | 1020.7 |
| 20260502111625 | 44 | 89 | 2.0 | 8.0 | 0.00 | 0.00 | 0.00 | 50 | 1020.7 |
| 20260502110617 | 42 | 100 | 3.0 | 8.0 | 0.00 | 0.00 | 0.00 | 55 | 1020.7 |
| 20260502105617 | 40 | 120 | 2.0 | 6.0 | 0.00 | 0.00 | 0.00 | 60 | 1020.9 |
| 20260502104624 | 40 | 146 | 0.0 | 3.0 | 0.00 | 0.00 | 0.00 | 60 | 1020.7 |
| 20260502103613 | 40 | 146 | 0.0 | 2.0 | 0.00 | 0.00 | 0.00 | 60 | 1020.9 |
| 20260502102647 | 40 | 146 | 1.0 | 3.0 | 0.00 | 0.00 | 0.00 | 61 | 1020.8 |
| 20260502101634 | 41 | 175 | 0.0 | 4.0 | 0.00 | 0.00 | 0.00 | 61 | 1020.7 |
| 20260502100621 | 41 | 299 | 1.0 | 2.0 | 0.00 | 0.00 | 0.00 | 61 | 1020.6 |
| 20260502090628 | 43 | 179 | 0.0 | 3.0 | 0.00 | 0.00 | 0.00 | 56 | 1020.7 |
| 20260502070613 | 46 | 97 | 1.0 | 4.0 | 0.00 | 0.00 | 0.00 | 55 | 1020.4 |
| 20260502065616 | 46 | 90 | 0.0 | 3.0 | 0.00 | 0.00 | 0.00 | 53 | 1020.3 |
| 20260502064627 | 46 | 100 | 1.0 | 4.0 | 0.00 | 0.00 | 0.00 | 54 | 1020.4 |
| 20260502063617 | 46 | 161 | 0.0 | 3.0 | 0.00 | 0.00 | 0.00 | 53 | 1020.4 |
| 20260502062611 | 46 | 190 | 1.0 | 3.0 | 0.00 | 0.00 | 0.00 | 55 | 1020.3 |
| 20260502061642 | 47 | 190 | 1.0 | 2.0 | 0.00 | 0.00 | 0.00 | 54 | 1020.3 |
| 20260502060612 | 47 | 190 | 0.0 | 2.0 | 0.00 | 0.00 | 0.00 | 54 | 1020.3 |
| 20260502055612 | 48 | 190 | 0.0 | 2.0 | 0.00 | 0.00 | 0.00 | 54 | 1020.3 |
| 20260502054620 | 48 | 190 | 0.0 | 2.0 | 0.00 | 0.00 | 0.00 | 51 | 1020.2 |
| 20260502053651 | 48 | 190 | 1.0 | 2.0 | 0.00 | 0.00 | 0.00 | 52 | 1020.3 |
| 20260502052639 | 48 | 190 | 1.0 | 3.0 | 0.00 | 0.00 | 0.00 | 53 | 1020.1 |
| 20260502051627 | 49 | 190 | 1.0 | 2.0 | 0.00 | 0.00 | 0.00 | 53 | 1020.2 |
| 20260502050619 | 49 | 190 | 1.0 | 2.0 | 0.00 | 0.00 | 0.00 | 50 | 1020.2 |
| 20260502045640 | 49 | 190 | 0.0 | 2.0 | 0.00 | 0.00 | 0.00 | 51 | 1020.2 |
| 20260502044612 | 50 | 190 | 0.0 | 1.0 | 0.00 | 0.00 | 0.00 | 50 | 1020.2 |
| 20260502043622 | 51 | 190 | 0.0 | 1.0 | 0.00 | 0.00 | 0.00 | 50 | 1020.2 |
| 20260502042650 | 52 | 190 | 1.0 | 1.0 | 0.00 | 0.00 | 0.00 | 48 | 1020.1 |
| 20260502041619 | 52 | 190 | 2.0 | 2.0 | 0.00 | 0.00 | 0.00 | 46 | 1020.1 |
| 20260502040612 | 52 | 190 | 0.0 | 0.0 | 0.00 | 0.00 | 0.00 | 45 | 1020.1 |
| 20260502035614 | 53 | 190 | 0.0 | 1.0 | 0.00 | 0.00 | 0.00 | 46 | 1019.9 |
| 20260502034624 | 54 | 190 | 0.0 | 2.0 | 0.00 | 0.00 | 0.00 | 45 | 1019.8 |
| 20260502033619 | 55 | 190 | 0.0 | 1.0 | 0.00 | 0.00 | 0.00 | 43 | 1019.7 |
| 20260502032631 | 56 | 190 | 0.0 | 2.0 | 0.00 | 0.00 | 0.00 | 41 | 1019.6 |
| 20260502031621 | 56 | 190 | 1.0 | 3.0 | 0.00 | 0.00 | 0.00 | 41 | 1019.6 |
| 20260502030631 | 57 | 190 | 1.0 | 2.0 | 0.00 | 0.00 | 0.00 | 40 | 1019.5 |
| 20260502025615 | 58 | 190 | 0.0 | 0.0 | 0.00 | 0.00 | 0.00 | 38 | 1019.3 |
| 20260502024624 | 59 | 190 | 1.0 | 2.0 | 0.00 | 0.00 | 0.00 | 38 | 1019.1 |
| 20260502023649 | 59 | 190 | 0.0 | 3.0 | 0.00 | 0.00 | 0.00 | 36 | 1018.9 |
| 20260502022614 | 60 | 170 | 2.0 | 5.0 | 0.00 | 0.00 | 0.00 | 36 | 1018.9 |
| 20260502021623 | 61 | 171 | 2.0 | 4.0 | 0.00 | 0.00 | 0.00 | 36 | 1018.7 |
| 20260502020615 | 62 | 263 | 1.0 | 7.0 | 0.00 | 0.00 | 0.00 | 33 | 1018.5 |
| 20260502015615 | 63 | 232 | 2.0 | 4.0 | 0.00 | 0.00 | 0.00 | 27 | 1018.5 |
| 20260502014623 | 64 | 309 | 3.0 | 10.0 | 0.00 | 0.00 | 0.00 | 26 | 1018.3 |
| 20260502013633 | 65 | 273 | 4.0 | 6.0 | 0.00 | 0.00 | 0.00 | 26 | 1018.3 |
| 20260502012625 | 65 | 355 | 4.0 | 10.0 | 0.00 | 0.00 | 0.00 | 26 | 1018.3 |
| 20260502011634 | 65 | 300 | 5.0 | 12.0 | 0.00 | 0.00 | 0.00 | 25 | 1018.2 |
| 20260502010620 | 66 | 269 | 2.0 | 8.0 | 0.00 | 0.00 | 0.00 | 25 | 1018.2 |
| 20260502005638 | 66 | 290 | 4.0 | 9.0 | 0.00 | 0.00 | 0.00 | 26 | 1018.4 |
| 20260502004626 | 66 | 267 | 5.0 | 9.0 | 0.00 | 0.00 | 0.00 | 24 | 1018.4 |
| 20260502003619 | 66 | 313 | 5.0 | 9.0 | 0.00 | 0.00 | 0.00 | 25 | 1018.5 |
| 20260502002648 | 66 | 310 | 5.0 | 10.0 | 0.00 | 0.00 | 0.00 | 25 | 1018.5 |
| 20260502001614 | 65 | 316 | 3.0 | 10.0 | 0.00 | 0.00 | 0.00 | 25 | 1018.7 |
| 20260502000623 | 65 | 259 | 8.0 | 12.0 | 0.00 | 0.00 | 0.00 | 24 | 1018.6 |
| 20260501235627 | 66 | 276 | 6.0 | 9.0 | 0.00 | 0.00 | 0.00 | 25 | 1018.6 |
| 20260501234615 | 65 | 355 | 4.0 | 10.0 | 0.00 | 0.00 | 0.00 | 25 | 1018.6 |
| 20260501233624 | 65 | 298 | 8.0 | 13.0 | 0.00 | 0.00 | 0.00 | 25 | 1018.6 |
| 20260501232613 | 65 | 5 | 4.0 | 13.0 | 0.00 | 0.00 | 0.00 | 25 | 1018.5 |
| 20260501231645 | 66 | 276 | 6.0 | 12.0 | 0.00 | 0.00 | 0.00 | 25 | 1018.5 |
| 20260501230632 | 65 | 360 | 5.0 | 12.0 | 0.00 | 0.00 | 0.00 | 25 | 1018.7 |
| 20260501225650 | 65 | 300 | 5.0 | 12.0 | 0.00 | 0.00 | 0.00 | 25 | 1018.7 |
| 20260501224619 | 65 | 328 | 7.0 | 14.0 | 0.00 | 0.00 | 0.00 | 26 | 1018.7 |
| 20260501223626 | 65 | 331 | 7.0 | 12.0 | 0.00 | 0.00 | 0.00 | 25 | 1018.8 |
| 20260501222618 | 65 | 350 | 7.0 | 15.0 | 0.00 | 0.00 | 0.00 | 25 | 1018.9 |
| 20260501221648 | 65 | 360 | 7.0 | 17.0 | 0.00 | 0.00 | 0.00 | 26 | 1019.0 |
| 20260501220623 | 64 | 339 | 7.0 | 15.0 | 0.00 | 0.00 | 0.00 | 24 | 1019.2 |
| 20260501215626 | 65 | 332 | 6.0 | 13.0 | 0.00 | 0.00 | 0.00 | 26 | 1019.3 |
| 20260501214621 | 65 | 50 | 7.0 | 14.0 | 0.00 | 0.00 | 0.00 | 25 | 1019.3 |
| 20260501213612 | 65 | 344 | 5.0 | 14.0 | 0.00 | 0.00 | 0.00 | 26 | 1019.4 |
| 20260501212622 | 65 | 302 | 6.0 | 13.0 | 0.00 | 0.00 | 0.00 | 25 | 1019.3 |
| 20260501211618 | 65 | 333 | 3.0 | 11.0 | 0.00 | 0.00 | 0.00 | 23 | 1019.4 |
| 20260501210628 | 65 | 323 | 4.0 | 11.0 | 0.00 | 0.00 | 0.00 | 20 | 1019.6 |
| 20260501205649 | 65 | 360 | 5.0 | 12.0 | 0.00 | 0.00 | 0.00 | 21 | 1019.6 |
| 20260501204618 | 65 | 336 | 3.0 | 8.0 | 0.00 | 0.00 | 0.00 | 20 | 1019.6 |
| 20260501203613 | 64 | 142 | 4.0 | 9.0 | 0.00 | 0.00 | 0.00 | 20 | 1019.5 |
| 20260501202625 | 64 | 244 | 5.0 | 11.0 | 0.00 | 0.00 | 0.00 | 21 | 1019.6 |
| 20260501201616 | 64 | 15 | 4.0 | 10.0 | 0.00 | 0.00 | 0.00 | 22 | 1019.5 |
| 20260501200627 | 63 | 296 | 6.0 | 15.0 | 0.00 | 0.00 | 0.00 | 21 | 1019.6 |
| 20260501195645 | 64 | 53 | 1.0 | 10.0 | 0.00 | 0.00 | 0.00 | 22 | 1019.6 |
| 20260501194616 | 64 | 187 | 3.0 | 10.0 | 0.00 | 0.00 | 0.00 | 21 | 1019.7 |
| 20260501193625 | 64 | 257 | 4.0 | 8.0 | 0.00 | 0.00 | 0.00 | 19 | 1019.8 |
| 20260501192651 | 63 | 104 | 2.0 | 8.0 | 0.00 | 0.00 | 0.00 | 23 | 1019.9 |
| 20260501191639 | 62 | 151 | 7.0 | 12.0 | 0.00 | 0.00 | 0.00 | 22 | 1020.2 |
| 20260501190649 | 62 | 114 | 7.0 | 13.0 | 0.00 | 0.00 | 0.00 | 21 | 1020.2 |
| 20260501185630 | 62 | 144 | 3.0 | 10.0 | 0.00 | 0.00 | 0.00 | 21 | 1020.4 |
| 20260501184641 | 61 | 119 | 6.0 | 12.0 | 0.00 | 0.00 | 0.00 | 18 | 1020.5 |
| 20260501183611 | 61 | 57 | 3.0 | 12.0 | 0.00 | 0.00 | 0.00 | 23 | 1020.7 |
| 20260501182626 | 61 | 126 | 5.0 | 10.0 | 0.00 | 0.00 | 0.00 | 23 | 1020.7 |
| 20260501181613 | 61 | 92 | 2.0 | 9.0 | 0.00 | 0.00 | 0.00 | 22 | 1020.9 |
| 20260501180625 | 61 | 109 | 2.0 | 11.0 | 0.00 | 0.00 | 0.00 | 23 | 1020.9 |
| 20260501175628 | 61 | 23 | 4.0 | 11.0 | 0.00 | 0.00 | 0.00 | 24 | 1021.1 |
| 20260501174618 | 59 | 107 | 3.0 | 16.0 | 0.00 | 0.00 | 0.00 | 25 | 1021.1 |
| 20260501173614 | 60 | 355 | 4.0 | 12.0 | 0.00 | 0.00 | 0.00 | 25 | 1020.9 |
| 20260501172625 | 60 | 68 | 3.0 | 11.0 | 0.00 | 0.00 | 0.00 | 26 | 1021.0 |
| 20260501171614 | 59 | 101 | 4.0 | 12.0 | 0.00 | 0.00 | 0.00 | 26 | 1021.1 |
| 20260501170630 | 59 | 91 | 6.0 | 12.0 | 0.00 | 0.00 | 0.00 | 26 | 1021.1 |
| 20260501165631 | 58 | 26 | 4.0 | 13.0 | 0.00 | 0.00 | 0.00 | 27 | 1021.0 |
| 20260501164619 | 58 | 79 | 3.0 | 14.0 | 0.00 | 0.00 | 0.00 | 29 | 1021.1 |
| 20260501163627 | 58 | 86 | 2.0 | 11.0 | 0.00 | 0.00 | 0.00 | 30 | 1021.2 |
| 20260501162640 | 57 | 118 | 3.0 | 10.0 | 0.00 | 0.00 | 0.00 | 29 | 1021.2 |
| 20260501161628 | 57 | 105 | 3.0 | 8.0 | 0.00 | 0.00 | 0.00 | 30 | 1021.0 |
| 20260501160619 | 57 | 18 | 3.0 | 14.0 | 0.00 | 0.00 | 0.00 | 31 | 1020.9 |
| 20260501155621 | 57 | 100 | 3.0 | 13.0 | 0.00 | 0.00 | 0.00 | 31 | 1020.9 |
| 20260501154613 | 55 | 62 | 2.0 | 10.0 | 0.00 | 0.00 | 0.00 | 33 | 1020.8 |
| 20260501153623 | 54 | 60 | 3.0 | 10.0 | 0.00 | 0.00 | 0.00 | 36 | 1020.8 |
| 20260501152651 | 53 | 78 | 2.0 | 9.0 | 0.00 | 0.00 | 0.00 | 36 | 1020.8 |